Time;durP1;ratioP1;P1;durP2;ratioP2;P2;SDS_P1;SDS_P2;PMS_P1;PMS_P2;Temp;Humidity;BMP_temperature;BMP_pressure;BME280_temperature;BME280_humidity;BME280_pressure;Samples;Min_cycle;Max_cycle;Signal;HPM_P1;HPM_P2
2021/03/30 06:50:40;;;;;;;13.00;4.47;;;16.80;98.00;;;;;;3565852;23;20519;-67
2021/03/30 06:53:11;;;;;;;14.10;5.13;;;17.30;97.10;;;;;;4918439;29;20257;-69
2021/03/30 06:55:46;;;;;;;12.13;4.97;;;17.90;96.10;;;;;;4921290;29;20206;-68
2021/03/30 06:58:13;;;;;;;9.43;4.88;;;18.40;95.30;;;;;;4920992;29;20232;-68
2021/03/30 07:00:40;;;;;;;9.55;4.78;;;19.00;94.80;;;;;;4920399;29;20798;-70
2021/03/30 07:03:08;;;;;;;7.63;4.55;;;19.40;94.30;;;;;;4919538;29;20217;-71
2021/03/30 07:05:39;;;;;;;11.93;5.38;;;19.80;93.60;;;;;;4918103;29;20202;-68
2021/03/30 07:08:08;;;;;;;9.52;4.70;;;20.30;93.00;;;;;;4917747;29;20268;-70
2021/03/30 07:10:37;;;;;;;10.05;5.00;;;20.90;92.30;;;;;;4917341;29;20682;-73
2021/03/30 07:13:04;;;;;;;9.90;5.22;;;21.40;91.70;;;;;;4913222;29;20273;-70
2021/03/30 07:15:31;;;;;;;13.48;5.30;;;22.00;91.10;;;;;;4920032;29;20237;-71
2021/03/30 07:18:05;;;;;;;9.05;4.85;;;22.50;90.30;;;;;;4917498;29;20751;-69
2021/03/30 07:20:34;;;;;;;10.40;5.60;;;23.10;88.50;;;;;;4916903;29;20233;-69
2021/03/30 07:23:08;;;;;;;11.20;5.20;;;23.70;88.50;;;;;;4916962;29;20270;-70
2021/03/30 07:25:39;;;;;;;12.65;5.80;;;24.20;87.10;;;;;;4917705;29;20213;-70
2021/03/30 07:28:11;;;;;;;10.38;5.30;;;24.60;86.60;;;;;;4916753;29;20225;-69
2021/03/30 07:30:42;;;;;;;10.18;5.10;;;25.00;85.30;;;;;;4916828;29;20233;-70
2021/03/30 07:33:17;;;;;;;10.90;4.75;;;25.40;84.00;;;;;;4917021;29;20220;-72
2021/03/30 07:35:44;;;;;;;10.07;5.03;;;25.50;77.40;;;;;;4916918;29;20212;-70
2021/03/30 07:38:17;;;;;;;7.82;4.57;;;25.70;79.50;;;;;;4916914;29;20230;-73
2021/03/30 07:40:43;;;;;;;8.60;4.68;;;26.10;74.00;;;;;;4917372;29;20213;-69
2021/03/30 07:43:11;;;;;;;13.02;4.85;;;26.40;72.20;;;;;;4915224;29;20213;-71
2021/03/30 07:45:41;;;;;;;8.95;4.82;;;26.60;70.20;;;;;;4918019;29;20205;-68
2021/03/30 07:48:10;;;;;;;10.85;5.55;;;26.90;69.90;;;;;;4918435;29;20577;-68
2021/03/30 07:50:57;;;;;;;7.85;4.78;;;26.40;70.00;;;;;;4917655;29;20742;-69
2021/03/30 07:53:53;;;;;;;11.23;4.82;;;26.80;69.30;;;;;;4917777;29;20209;-69
2021/03/30 07:56:49;;;;;;;7.38;4.60;;;26.80;68.10;;;;;;4906548;29;20601;-70
2021/03/30 07:59:43;;;;;;;7.75;4.05;;;26.10;66.90;;;;;;4917452;29;20233;-69
2021/03/30 08:02:12;;;;;;;7.18;4.07;;;25.50;66.90;;;;;;4917354;29;20292;-69
2021/03/30 08:04:38;;;;;;;6.53;4.05;;;24.90;68.70;;;;;;4917222;29;20217;-70
2021/03/30 08:07:05;;;;;;;12.85;4.40;;;24.40;69.70;;;;;;4917556;29;20260;-69
2021/03/30 08:09:32;;;;;;;7.40;3.97;;;24.60;67.80;;;;;;4916851;29;20201;-69
2021/03/30 08:11:59;;;;;;;5.80;3.72;;;24.50;67.20;;;;;;4916814;29;20596;-71
2021/03/30 08:14:42;;;;;;;8.30;4.32;;;24.70;67.00;;;;;;4916577;29;20668;-69
2021/03/30 08:17:14;;;;;;;6.43;3.72;;;24.70;65.50;;;;;;4916752;29;20217;-69
2021/03/30 08:20:02;;;;;;;6.43;3.50;;;23.10;68.00;;;;;;4917242;29;20348;-68
2021/03/30 08:22:41;;;;;;;7.15;3.65;;;23.10;68.10;;;;;;4915161;29;20219;-71
2021/03/30 08:25:23;;;;;;;5.25;3.58;;;21.90;70.20;;;;;;4915829;29;20231;-70
2021/03/30 08:27:49;;;;;;;5.55;3.65;;;21.70;72.30;;;;;;4915830;29;20290;-66
2021/03/30 08:30:49;;;;;;;6.38;3.88;;;22.50;71.90;;;;;;4916823;29;20237;-67
2021/03/30 08:33:16;;;;;;;7.03;4.45;;;23.10;70.20;;;;;;4916298;29;20285;-66
2021/03/30 08:35:42;;;;;;;8.70;3.83;;;22.50;71.60;;;;;;4916793;29;20213;-66
2021/03/30 08:38:42;;;;;;;8.10;3.80;;;23.00;69.30;;;;;;4916958;29;20229;-68
2021/03/30 08:41:09;;;;;;;7.30;3.55;;;22.50;72.20;;;;;;4917009;29;20566;-67
2021/03/30 08:43:36;;;;;;;5.32;3.58;;;22.40;70.50;;;;;;4916824;29;20695;-68
2021/03/30 08:46:05;;;;;;;6.95;3.55;;;22.00;70.40;;;;;;4916547;29;20569;-67
2021/03/30 08:48:36;;;;;;;6.47;3.67;;;21.40;71.60;;;;;;4916627;29;20297;-67
2021/03/30 08:51:04;;;;;;;5.53;2.88;;;21.10;72.70;;;;;;4917172;29;20245;-66
2021/03/30 08:53:31;;;;;;;6.20;3.17;;;20.70;73.10;;;;;;4917059;29;20209;-66
2021/03/30 08:56:00;;;;;;;8.63;4.18;;;20.70;73.30;;;;;;4916266;29;20256;-66
2021/03/30 08:58:28;;;;;;;8.60;3.60;;;21.00;73.50;;;;;;4916503;29;20232;-66
2021/03/30 09:00:58;;;;;;;8.68;3.75;;;21.20;72.40;;;;;;4917151;29;20209;-66
2021/03/30 09:03:26;;;;;;;6.85;3.53;;;21.20;71.70;;;;;;4917401;29;20213;-66
2021/03/30 09:05:52;;;;;;;6.88;2.92;;;21.30;71.80;;;;;;4917107;29;20213;-66
2021/03/30 09:08:34;;;;;;;7.78;3.63;;;21.40;71.80;;;;;;4917430;29;20281;-66
2021/03/30 09:11:14;;;;;;;7.38;3.17;;;21.30;71.20;;;;;;4917112;29;20237;-67
2021/03/30 09:13:41;;;;;;;8.32;3.33;;;21.70;72.70;;;;;;4917164;29;20213;-67
2021/03/30 09:16:09;;;;;;;6.60;3.25;;;22.10;70.10;;;;;;4917186;29;20213;-67
2021/03/30 09:18:37;;;;;;;9.43;3.25;;;22.20;68.30;;;;;;4916991;29;20249;-67
2021/03/30 09:21:08;;;;;;;6.90;2.78;;;22.20;69.60;;;;;;4917179;29;20297;-67
2021/03/30 09:23:35;;;;;;;8.02;3.40;;;22.20;69.10;;;;;;4917049;29;20249;-66
2021/03/30 09:26:10;;;;;;;7.57;2.90;;;21.90;69.50;;;;;;4916286;29;20209;-66
2021/03/30 09:28:36;;;;;;;5.93;3.22;;;22.00;66.30;;;;;;4916599;29;20233;-67
2021/03/30 09:31:03;;;;;;;6.75;2.83;;;21.80;70.00;;;;;;4916621;29;20236;-67
2021/03/30 09:33:30;;;;;;;6.65;2.83;;;21.30;70.20;;;;;;4917256;29;20216;-66
2021/03/30 09:36:00;;;;;;;7.38;3.20;;;21.10;70.40;;;;;;4916833;29;20214;-67
2021/03/30 09:38:26;;;;;;;5.53;2.90;;;21.10;71.20;;;;;;4916762;29;20233;-67
2021/03/30 09:40:53;;;;;;;5.53;2.83;;;20.80;71.80;;;;;;4916910;29;20260;-67
2021/03/30 09:43:20;;;;;;;7.68;3.53;;;20.40;74.00;;;;;;4916613;29;20228;-66
2021/03/30 09:45:47;;;;;;;5.80;2.88;;;20.10;76.00;;;;;;4916747;29;20277;-67
2021/03/30 09:48:16;;;;;;;8.52;3.30;;;19.90;76.70;;;;;;4916913;29;20320;-66
2021/03/30 09:50:44;;;;;;;6.40;2.83;;;20.00;78.30;;;;;;4916330;29;20730;-66
2021/03/30 09:53:10;;;;;;;8.95;3.38;;;19.90;77.20;;;;;;4916779;29;20210;-66
2021/03/30 09:55:38;;;;;;;6.40;3.15;;;20.10;77.70;;;;;;4916890;29;20209;-66
2021/03/30 09:58:07;;;;;;;7.88;2.95;;;20.00;75.30;;;;;;4916719;29;20229;-67
2021/03/30 10:00:35;;;;;;;5.55;2.40;;;19.60;73.50;;;;;;4916736;29;20213;-66
2021/03/30 10:03:02;;;;;;;6.85;2.78;;;19.60;73.00;;;;;;4916520;29;20213;-66
2021/03/30 10:05:33;;;;;;;5.55;2.67;;;19.50;74.40;;;;;;4916698;29;20220;-66
2021/03/30 10:08:00;;;;;;;8.77;3.08;;;19.50;75.30;;;;;;4916403;29;20285;-66
2021/03/30 10:10:39;;;;;;;6.70;3.28;;;19.40;77.60;;;;;;4916626;29;20233;-67
2021/03/30 10:13:07;;;;;;;6.68;3.38;;;19.30;79.00;;;;;;4916429;29;20217;-67
2021/03/30 10:15:35;;;;;;;8.83;3.50;;;19.30;79.60;;;;;;4916427;29;20209;-66
2021/03/30 10:18:01;;;;;;;8.33;3.20;;;19.40;80.10;;;;;;4916342;29;20230;-67
2021/03/30 10:20:28;;;;;;;9.43;3.05;;;19.60;79.70;;;;;;4916322;29;20268;-67
2021/03/30 10:22:55;;;;;;;9.20;3.33;;;19.70;78.70;;;;;;4916269;29;20213;-66
2021/03/30 10:25:22;;;;;;;6.50;3.15;;;19.60;79.20;;;;;;4916504;29;20713;-67
2021/03/30 10:27:51;;;;;;;6.80;3.25;;;19.70;79.20;;;;;;4916319;29;20230;-66
2021/03/30 10:30:19;;;;;;;7.93;2.97;;;19.60;79.30;;;;;;4916320;29;20238;-67
2021/03/30 10:32:48;;;;;;;5.97;3.03;;;19.60;78.10;;;;;;4916393;29;20241;-67
2021/03/30 10:35:15;;;;;;;5.40;2.67;;;19.80;79.00;;;;;;4916562;29;20248;-66
2021/03/30 10:37:42;;;;;;;7.97;3.50;;;19.90;77.10;;;;;;4917875;29;20561;-66
2021/03/30 10:40:11;;;;;;;11.13;3.15;;;19.90;77.90;;;;;;4919936;29;20688;-67
2021/03/30 10:42:40;;;;;;;6.97;3.25;;;20.00;78.50;;;;;;4919896;29;20213;-66
2021/03/30 10:45:09;;;;;;;8.30;3.20;;;20.00;78.60;;;;;;4919794;29;20240;-67
2021/03/30 10:47:37;;;;;;;5.40;2.90;;;20.10;81.00;;;;;;4919718;29;20311;-67
2021/03/30 10:50:07;;;;;;;10.50;3.40;;;20.10;78.40;;;;;;4919517;29;20206;-67
2021/03/30 10:52:34;;;;;;;8.52;3.10;;;20.00;77.80;;;;;;4919756;29;20214;-67
2021/03/30 10:55:02;;;;;;;7.63;3.28;;;20.30;78.40;;;;;;4919740;29;20209;-68
2021/03/30 10:57:33;;;;;;;6.20;2.92;;;20.40;78.50;;;;;;4919779;29;20234;-69
2021/03/30 11:00:00;;;;;;;6.90;2.92;;;20.60;74.40;;;;;;4919643;29;20217;-68
2021/03/30 11:02:27;;;;;;;4.63;1.98;;;20.70;74.80;;;;;;4919427;29;20684;-68
2021/03/30 11:04:53;;;;;;;5.47;2.70;;;20.50;77.50;;;;;;4919731;29;20213;-67
2021/03/30 11:07:19;;;;;;;7.55;2.78;;;20.70;75.70;;;;;;4919407;29;20230;-66
2021/03/30 11:09:45;;;;;;;4.03;2.00;;;20.90;75.20;;;;;;4919345;29;20297;-67
2021/03/30 11:12:12;;;;;;;6.55;2.28;;;21.00;74.40;;;;;;4919619;29;20302;-65
2021/03/30 11:14:39;;;;;;;4.43;2.38;;;21.10;71.50;;;;;;4919448;29;20233;-66
2021/03/30 11:17:06;;;;;;;6.60;2.20;;;21.10;74.00;;;;;;4919404;29;20213;-66
2021/03/30 11:19:32;;;;;;;7.03;2.03;;;21.10;73.10;;;;;;4919682;29;20244;-65
2021/03/30 11:21:59;;;;;;;5.78;2.53;;;21.20;73.60;;;;;;4919523;29;20679;-66
2021/03/30 11:24:29;;;;;;;4.70;2.40;;;21.20;73.50;;;;;;4919271;29;20568;-68
2021/03/30 11:26:57;;;;;;;6.55;2.10;;;21.00;73.30;;;;;;4919311;29;20580;-67
2021/03/30 11:29:28;;;;;;;4.22;1.63;;;21.10;71.10;;;;;;4918954;29;20214;-68
2021/03/30 11:32:20;;;;;;;4.90;1.50;;;21.10;67.80;;;;;;4919212;29;20248;-67
2021/03/30 11:34:48;;;;;;;3.92;1.65;;;21.30;68.00;;;;;;4919187;29;20241;-66
2021/03/30 11:37:33;;;;;;;3.13;1.48;;;21.40;67.70;;;;;;4918707;29;20220;-66
2021/03/30 11:39:59;;;;;;;3.42;1.40;;;21.40;67.70;;;;;;4918807;29;20214;-66
2021/03/30 11:42:26;;;;;;;3.08;1.10;;;21.30;67.40;;;;;;4919051;29;20210;-67
2021/03/30 11:44:52;;;;;;;3.15;1.45;;;21.30;66.40;;;;;;4918741;29;20214;-66
2021/03/30 11:47:19;;;;;;;4.60;1.45;;;21.30;66.50;;;;;;4918699;29;20229;-66
2021/03/30 11:49:46;;;;;;;3.13;1.83;;;21.50;68.10;;;;;;4918302;29;20269;-65
2021/03/30 11:52:12;;;;;;;3.75;1.70;;;21.50;66.70;;;;;;4918323;29;20604;-66
2021/03/30 11:54:38;;;;;;;4.32;1.60;;;21.60;66.20;;;;;;4918846;29;20224;-65
2021/03/30 11:57:05;;;;;;;2.92;1.50;;;21.70;66.60;;;;;;4918701;29;20206;-65
2021/03/30 11:59:32;;;;;;;2.60;1.55;;;21.80;68.60;;;;;;4918704;29;20673;-66
2021/03/30 12:01:58;;;;;;;2.97;1.80;;;21.90;68.90;;;;;;4918725;29;20213;-65
2021/03/30 12:04:25;;;;;;;2.80;1.63;;;22.20;67.00;;;;;;4918427;29;20225;-65
2021/03/30 12:06:52;;;;;;;6.65;2.17;;;22.20;65.00;;;;;;4917904;29;20217;-66
2021/03/30 12:09:19;;;;;;;2.95;1.77;;;21.90;66.10;;;;;;4918304;29;20236;-66
2021/03/30 12:11:46;;;;;;;3.67;1.83;;;22.10;67.10;;;;;;4918097;29;20245;-66
2021/03/30 12:14:13;;;;;;;2.90;1.63;;;22.10;68.30;;;;;;4918433;29;20264;-66
2021/03/30 12:16:39;;;;;;;2.80;1.80;;;22.10;68.20;;;;;;4918199;29;20209;-66
2021/03/30 12:19:06;;;;;;;3.65;1.80;;;22.10;68.40;;;;;;4918170;29;20241;-66
2021/03/30 12:21:33;;;;;;;3.58;1.85;;;22.10;69.30;;;;;;4917993;29;20689;-67
2021/03/30 12:24:00;;;;;;;4.28;1.90;;;22.10;68.90;;;;;;4917795;29;20677;-67
2021/03/30 12:26:26;;;;;;;3.22;1.92;;;22.10;68.70;;;;;;4918115;29;20209;-67
2021/03/30 12:28:52;;;;;;;2.67;1.50;;;22.20;69.10;;;;;;4918358;29;20420;-67
2021/03/30 12:31:19;;;;;;;4.18;1.60;;;22.20;68.50;;;;;;4918633;29;20244;-66
2021/03/30 12:33:45;;;;;;;3.10;1.40;;;22.10;68.50;;;;;;4918444;29;20282;-66
2021/03/30 12:36:12;;;;;;;2.13;1.25;;;22.30;68.10;;;;;;4918017;29;20735;-66
2021/03/30 12:38:39;;;;;;;2.08;1.50;;;22.30;61.10;;;;;;4918059;29;20743;-66
2021/03/30 12:41:06;;;;;;;2.08;1.17;;;22.20;63.00;;;;;;4918462;29;20225;-66
2021/03/30 12:43:32;;;;;;;2.80;1.35;;;22.20;62.20;;;;;;4918362;29;20218;-68
2021/03/30 12:45:59;;;;;;;2.90;1.10;;;22.30;64.20;;;;;;4918465;29;20217;-66
2021/03/30 12:48:25;;;;;;;3.25;1.55;;;22.50;64.30;;;;;;4918399;29;20233;-66
2021/03/30 12:50:52;;;;;;;2.47;1.63;;;22.70;64.50;;;;;;4917924;29;20229;-66
2021/03/30 12:53:18;;;;;;;3.40;1.95;;;22.80;65.50;;;;;;4917720;29;20209;-66
2021/03/30 12:55:45;;;;;;;4.55;1.60;;;22.70;66.00;;;;;;4917533;29;20209;-67
2021/03/30 12:58:11;;;;;;;4.03;1.83;;;22.80;67.20;;;;;;4917600;29;20708;-66
2021/03/30 13:00:38;;;;;;;2.35;1.40;;;22.70;65.10;;;;;;4917497;29;20217;-66
2021/03/30 13:03:04;;;;;;;5.65;2.22;;;22.70;65.40;;;;;;4917714;29;20237;-66
2021/03/30 13:05:31;;;;;;;3.67;2.15;;;22.70;66.20;;;;;;4917830;29;20217;-67
2021/03/30 13:07:57;;;;;;;4.80;2.60;;;22.70;69.10;;;;;;4917661;29;20325;-67
2021/03/30 13:10:23;;;;;;;3.72;2.13;;;22.70;70.90;;;;;;4917379;29;20576;-67
2021/03/30 13:12:51;;;;;;;3.40;2.20;;;22.80;70.90;;;;;;4918074;29;20562;-66
2021/03/30 13:15:17;;;;;;;4.75;2.47;;;22.70;71.00;;;;;;4917229;29;20245;-66
2021/03/30 13:17:44;;;;;;;4.13;2.20;;;22.60;70.20;;;;;;4917249;29;20612;-68
2021/03/30 13:20:11;;;;;;;4.40;2.58;;;22.50;71.60;;;;;;4917739;29;20667;-67
2021/03/30 13:22:37;;;;;;;3.70;2.45;;;22.50;70.30;;;;;;4917640;29;20220;-67
2021/03/30 13:25:04;;;;;;;5.45;2.55;;;22.40;70.60;;;;;;4917233;29;20256;-66
2021/03/30 13:27:31;;;;;;;3.83;2.38;;;22.50;71.40;;;;;;4917079;29;20229;-67
2021/03/30 13:29:58;;;;;;;4.57;2.53;;;22.50;69.60;;;;;;4916947;29;20213;-67
2021/03/30 13:32:24;;;;;;;4.50;2.28;;;22.50;68.90;;;;;;4916769;29;20271;-66
2021/03/30 13:34:51;;;;;;;4.65;2.70;;;22.50;70.30;;;;;;4916750;29;20304;-67
2021/03/30 13:37:18;;;;;;;3.00;2.17;;;22.50;71.50;;;;;;4916506;29;20210;-68
2021/03/30 13:39:45;;;;;;;3.20;1.98;;;22.50;71.30;;;;;;4916650;29;20214;-68
2021/03/30 13:42:13;;;;;;;5.00;2.35;;;22.50;71.00;;;;;;4916883;29;20209;-68
2021/03/30 13:44:40;;;;;;;3.47;2.38;;;22.50;71.50;;;;;;4916641;29;20209;-68
2021/03/30 13:47:09;;;;;;;3.85;2.58;;;22.50;70.90;;;;;;4916600;29;20232;-68
2021/03/30 13:49:37;;;;;;;4.18;2.38;;;22.50;69.20;;;;;;4916932;29;20206;-67
2021/03/30 13:52:05;;;;;;;4.63;2.50;;;22.50;70.90;;;;;;4916375;29;20248;-68
2021/03/30 13:54:31;;;;;;;4.68;2.33;;;22.60;70.00;;;;;;4916829;29;20260;-67
2021/03/30 13:56:58;;;;;;;4.90;2.72;;;22.60;70.60;;;;;;4916764;29;20248;-68
2021/03/30 13:59:24;;;;;;;5.57;2.50;;;22.60;70.30;;;;;;4917160;29;20664;-68
2021/03/30 14:01:51;;;;;;;4.75;2.40;;;22.60;70.40;;;;;;4916856;29;20573;-68
2021/03/30 14:04:19;;;;;;;6.07;2.97;;;22.70;71.20;;;;;;4916686;29;20220;-68
2021/03/30 14:06:46;;;;;;;3.47;2.35;;;22.60;69.40;;;;;;4916795;29;20300;-67
2021/03/30 14:09:12;;;;;;;4.38;2.65;;;22.50;70.30;;;;;;4916703;29;20226;-68
2021/03/30 14:11:44;;;;;;;4.93;2.22;;;22.60;70.70;;;;;;4917047;29;20244;-67
2021/03/30 14:14:13;;;;;;;5.03;2.58;;;22.70;71.30;;;;;;4920403;29;20218;-68
2021/03/30 14:16:50;;;;;;;4.03;2.22;;;22.70;70.60;;;;;;4920717;29;20260;-68
2021/03/30 14:19:19;;;;;;;3.53;2.28;;;22.80;71.00;;;;;;4920483;29;20256;-68
2021/03/30 14:21:49;;;;;;;5.13;2.50;;;22.80;72.70;;;;;;4920248;29;20209;-67
2021/03/30 14:24:37;;;;;;;4.45;2.55;;;22.90;70.80;;;;;;4920420;29;20261;-68
2021/03/30 14:27:03;;;;;;;5.70;2.60;;;22.80;69.60;;;;;;4920581;29;20213;-67
2021/03/30 14:29:30;;;;;;;5.60;2.50;;;22.70;70.80;;;;;;4920119;29;20236;-67
2021/03/30 14:31:56;;;;;;;3.67;2.67;;;22.80;71.30;;;;;;4920205;29;20244;-67
2021/03/30 14:34:23;;;;;;;4.47;2.10;;;22.70;69.50;;;;;;4920393;29;20214;-68
2021/03/30 14:36:50;;;;;;;3.05;2.22;;;22.80;70.60;;;;;;4920080;29;20210;-67
2021/03/30 14:39:17;;;;;;;7.35;2.30;;;22.90;69.20;;;;;;4920085;29;20243;-67
2021/03/30 14:41:45;;;;;;;4.78;2.30;;;22.90;70.70;;;;;;4920146;29;20217;-67
2021/03/30 14:44:18;;;;;;;3.50;2.20;;;23.00;68.00;;;;;;4919816;29;20209;-65
2021/03/30 14:52:25;;;;;;;6.50;2.90;;;23.10;70.80;;;;;;4919648;29;20296;-66
2021/03/30 14:55:04;;;;;;;4.57;2.63;;;23.00;71.40;;;;;;4919623;29;20209;-66
2021/03/30 14:57:33;;;;;;;5.05;2.35;;;23.00;70.60;;;;;;4919741;29;20229;-66
2021/03/30 15:00:04;;;;;;;3.30;2.17;;;23.00;72.30;;;;;;4919659;29;20213;-66
2021/03/30 15:02:41;;;;;;;4.65;2.30;;;22.90;70.70;;;;;;4919831;29;20221;-66
2021/03/30 15:05:08;;;;;;;4.82;1.98;;;22.70;69.50;;;;;;4919698;29;20299;-65
2021/03/30 15:07:35;;;;;;;4.55;2.42;;;22.70;71.50;;;;;;4919296;29;20237;-66
2021/03/30 15:10:02;;;;;;;8.13;2.83;;;22.70;70.40;;;;;;4919337;29;20580;-66
2021/03/30 15:12:28;;;;;;;5.05;2.72;;;22.70;70.20;;;;;;4919141;29;20237;-66
2021/03/30 15:14:55;;;;;;;4.15;2.25;;;22.80;69.50;;;;;;4919646;29;20210;-65
2021/03/30 15:17:21;;;;;;;3.03;1.90;;;22.90;69.10;;;;;;4919425;29;20230;-65
2021/03/30 15:19:47;;;;;;;5.03;2.25;;;22.90;68.70;;;;;;4919257;29;20214;-66
2021/03/30 15:22:14;;;;;;;4.22;2.42;;;22.90;68.20;;;;;;4919305;29;20209;-66
2021/03/30 15:24:41;;;;;;;3.13;2.00;;;22.80;68.10;;;;;;4917861;29;20606;-66
2021/03/30 15:27:09;;;;;;;2.65;2.13;;;22.80;68.90;;;;;;4919216;29;20286;-65
2021/03/30 15:29:35;;;;;;;3.95;1.75;;;22.70;68.30;;;;;;4919178;29;20213;-66
2021/03/30 15:32:02;;;;;;;2.83;1.60;;;22.90;66.60;;;;;;4918980;29;20743;-66
2021/03/30 15:34:28;;;;;;;4.55;1.63;;;22.90;67.40;;;;;;4919065;29;20677;-65
2021/03/30 15:36:55;;;;;;;4.07;1.80;;;22.80;67.20;;;;;;4918963;29;20210;-66
2021/03/30 15:39:22;;;;;;;4.25;2.38;;;22.90;67.50;;;;;;4918672;29;20286;-65
2021/03/30 15:41:49;;;;;;;2.95;1.67;;;22.80;66.80;;;;;;4919067;29;20232;-66
2021/03/30 15:44:25;;;;;;;2.85;2.03;;;22.70;67.70;;;;;;4918805;29;20221;-65
2021/03/30 15:49:35;;;;;;;3.38;1.85;;;22.70;66.50;;;;;;4918605;29;20261;-65
2021/03/30 15:52:01;;;;;;;2.42;1.70;;;22.70;66.50;;;;;;4918358;29;20292;-66
2021/03/30 15:54:32;;;;;;;3.28;1.60;;;22.70;67.40;;;;;;4918737;29;20209;-65
2021/03/30 15:56:59;;;;;;;2.25;1.38;;;22.70;65.60;;;;;;4918692;29;20216;-65
2021/03/30 15:59:25;;;;;;;3.97;1.60;;;22.70;66.30;;;;;;4918496;29;20210;-66
2021/03/30 16:01:52;;;;;;;3.90;1.50;;;22.70;66.40;;;;;;4918499;29;20597;-65
2021/03/30 16:04:18;;;;;;;2.65;1.50;;;22.70;65.00;;;;;;4918136;29;20229;-66
2021/03/30 16:06:44;;;;;;;2.35;1.55;;;22.60;64.30;;;;;;4918114;29;20804;-66
2021/03/30 16:09:11;;;;;;;3.58;1.50;;;22.60;65.00;;;;;;4918156;29;20234;-66
2021/03/30 16:11:37;;;;;;;2.67;1.50;;;22.70;65.20;;;;;;4918164;29;20251;-66
2021/03/30 16:14:04;;;;;;;5.40;1.70;;;22.80;64.70;;;;;;4918462;29;20218;-65
2021/03/30 16:16:30;;;;;;;1.92;1.20;;;22.90;64.30;;;;;;4918126;29;20218;-66
2021/03/30 16:18:57;;;;;;;2.80;1.40;;;22.90;66.00;;;;;;4917628;29;20319;-66
2021/03/30 16:21:23;;;;;;;3.90;1.52;;;22.90;66.00;;;;;;4918177;29;20272;-66
2021/03/30 16:23:49;;;;;;;4.25;1.60;;;22.80;66.60;;;;;;4917618;29;20577;-66
2021/03/30 16:26:15;;;;;;;3.20;1.90;;;22.90;66.60;;;;;;4917501;29;20244;-65
2021/03/30 16:28:41;;;;;;;2.60;1.65;;;22.70;66.80;;;;;;4917784;29;20581;-66
2021/03/30 16:31:08;;;;;;;2.25;1.40;;;22.70;67.50;;;;;;4917161;29;20257;-66
2021/03/30 16:33:35;;;;;;;2.97;1.60;;;22.70;67.30;;;;;;4917545;29;20237;-66
2021/03/30 16:36:01;;;;;;;5.97;1.90;;;22.70;66.60;;;;;;4917553;29;20225;-65
2021/03/30 16:38:27;;;;;;;3.60;1.85;;;22.70;67.30;;;;;;4917286;29;20708;-66
2021/03/30 16:40:53;;;;;;;3.63;1.80;;;22.60;67.50;;;;;;4917652;29;20232;-66
2021/03/30 16:43:20;;;;;;;2.88;1.88;;;22.60;68.30;;;;;;4917698;29;20209;-65
2021/03/30 16:45:46;;;;;;;2.67;1.92;;;22.60;68.50;;;;;;4917411;29;20221;-66
2021/03/30 16:48:13;;;;;;;4.68;1.95;;;22.60;68.30;;;;;;4917023;29;20229;-66
2021/03/30 16:50:40;;;;;;;4.72;2.17;;;22.70;68.20;;;;;;4917027;29;20531;-67
2021/03/30 16:53:06;;;;;;;4.00;2.17;;;22.60;67.90;;;;;;4914662;29;20210;-70
2021/03/30 16:55:32;;;;;;;3.47;2.50;;;22.60;68.30;;;;;;4916786;29;20206;-70
2021/03/30 16:57:59;;;;;;;3.83;2.20;;;22.50;68.80;;;;;;4916176;29;20649;-71
2021/03/30 17:00:26;;;;;;;3.30;1.83;;;22.40;68.50;;;;;;4911904;29;20214;-68
2021/03/30 17:02:52;;;;;;;3.50;1.92;;;22.20;69.10;;;;;;4913541;29;20217;-68
2021/03/30 17:05:19;;;;;;;3.95;2.20;;;22.20;69.20;;;;;;4914926;29;20741;-67
2021/03/30 17:07:45;;;;;;;3.65;1.65;;;22.10;68.90;;;;;;4913818;29;20312;-67
2021/03/30 17:10:14;;;;;;;4.82;1.60;;;22.00;69.50;;;;;;4914481;29;20213;-68
2021/03/30 17:12:40;;;;;;;3.53;1.90;;;22.10;69.70;;;;;;4914693;29;20328;-67
2021/03/30 17:15:08;;;;;;;4.53;1.80;;;22.00;69.90;;;;;;4914108;29;20213;-67
2021/03/30 17:17:34;;;;;;;2.42;1.85;;;21.90;69.70;;;;;;4913617;29;20225;-68
2021/03/30 17:20:00;;;;;;;2.85;1.52;;;21.90;70.00;;;;;;4914545;29;20682;-68
2021/03/30 17:22:27;;;;;;;3.45;2.17;;;21.70;69.60;;;;;;4913108;29;20261;-67
2021/03/30 17:24:53;;;;;;;3.25;1.90;;;21.70;70.00;;;;;;4915159;29;20220;-68
2021/03/30 17:27:20;;;;;;;5.25;2.25;;;21.60;70.20;;;;;;4914574;29;20230;-68
2021/03/30 17:29:46;;;;;;;3.63;1.50;;;21.50;70.50;;;;;;4913190;29;20206;-67
2021/03/30 17:32:12;;;;;;;1.98;1.50;;;21.40;70.80;;;;;;4913965;29;20233;-66
2021/03/30 17:34:38;;;;;;;2.95;1.30;;;21.30;70.70;;;;;;4914474;29;20673;-67
2021/03/30 17:37:05;;;;;;;2.92;1.55;;;21.20;71.00;;;;;;4914392;29;20208;-67
2021/03/30 17:39:32;;;;;;;2.03;1.30;;;21.10;71.80;;;;;;4914310;29;20657;-66
2021/03/30 17:41:58;;;;;;;4.20;1.92;;;21.00;71.50;;;;;;4915040;29;20222;-66
2021/03/30 17:44:25;;;;;;;5.30;1.60;;;20.90;71.60;;;;;;4914802;29;20206;-67
2021/03/30 17:46:51;;;;;;;4.03;1.42;;;20.80;72.10;;;;;;4914736;29;20221;-68
2021/03/30 17:49:17;;;;;;;2.30;1.20;;;20.80;72.10;;;;;;4915309;29;20289;-67
2021/03/30 17:51:43;;;;;;;3.55;1.90;;;20.60;73.10;;;;;;4915036;29;20237;-67
2021/03/30 17:54:10;;;;;;;4.05;1.73;;;20.50;72.60;;;;;;4915263;29;20214;-66
2021/03/30 17:56:37;;;;;;;3.83;1.25;;;20.40;73.40;;;;;;4914353;29;20214;-67
2021/03/30 17:59:03;;;;;;;2.95;1.40;;;20.30;74.10;;;;;;4914369;29;20597;-68
2021/03/30 18:01:30;;;;;;;1.88;1.23;;;20.20;74.30;;;;;;4915334;29;20221;-67
2021/03/30 18:03:57;;;;;;;4.18;1.40;;;20.10;75.20;;;;;;4915514;29;20216;-67
2021/03/30 18:06:23;;;;;;;3.97;1.63;;;19.90;75.70;;;;;;4914480;29;20569;-67
2021/03/30 18:08:49;;;;;;;2.88;1.65;;;19.80;76.10;;;;;;4915095;29;20238;-69
2021/03/30 18:11:16;;;;;;;3.75;1.70;;;19.60;76.70;;;;;;4915252;29;20241;-71
2021/03/30 18:13:43;;;;;;;2.90;1.40;;;19.60;79.90;;;;;;4914586;29;20210;-70
2021/03/30 18:16:10;;;;;;;3.00;1.27;;;19.60;84.10;;;;;;4915102;29;20216;-69
2021/03/30 18:18:36;;;;;;;3.35;1.75;;;19.50;85.40;;;;;;4914861;29;20771;-68
2021/03/30 18:21:03;;;;;;;4.75;1.60;;;19.40;85.40;;;;;;4914447;29;20213;-71
2021/03/30 18:23:30;;;;;;;6.27;1.93;;;19.20;87.30;;;;;;4914497;29;20269;-71
2021/03/30 18:25:56;;;;;;;3.50;1.70;;;19.00;87.90;;;;;;4915383;29;20237;-69
2021/03/30 18:28:23;;;;;;;4.97;2.30;;;18.90;88.60;;;;;;4914667;29;20230;-67
2021/03/30 18:30:52;;;;;;;4.77;1.80;;;18.70;89.30;;;;;;4914779;29;20214;-68
2021/03/30 18:33:20;;;;;;;4.33;1.73;;;18.50;90.30;;;;;;4915032;29;20581;-68
2021/03/30 18:35:46;;;;;;;4.43;1.60;;;18.30;90.70;;;;;;4914456;29;20205;-68
2021/03/30 18:38:12;;;;;;;4.40;1.90;;;18.10;90.90;;;;;;4914649;29;20237;-70
2021/03/30 18:40:39;;;;;;;7.33;2.90;;;18.00;91.50;;;;;;4914404;29;20210;-69
2021/03/30 18:43:05;;;;;;;5.40;2.93;;;17.80;91.60;;;;;;4914004;29;20221;-68
2021/03/30 18:45:32;;;;;;;9.10;2.77;;;17.70;91.70;;;;;;4911371;29;20214;-67
2021/03/30 18:48:00;;;;;;;8.30;3.60;;;17.50;92.40;;;;;;4915686;29;20621;-69
2021/03/30 18:50:26;;;;;;;7.93;4.37;;;17.40;92.50;;;;;;4913631;29;20233;-67
2021/03/30 18:52:54;;;;;;;11.50;3.33;;;17.30;92.70;;;;;;4914330;29;20247;-73
2021/03/30 18:55:20;;;;;;;8.67;3.87;;;17.10;93.10;;;;;;4914333;29;20345;-73
2021/03/30 18:57:49;;;;;;;7.83;3.60;;;17.00;93.20;;;;;;4914137;29;20235;-68
2021/03/30 19:00:25;;;;;;;7.13;3.37;;;16.70;93.90;;;;;;4917712;29;20209;-71
2021/03/30 19:02:51;;;;;;;4.83;2.80;;;16.50;94.40;;;;;;4918132;29;20240;-71
2021/03/30 19:05:18;;;;;;;6.73;3.27;;;16.30;95.00;;;;;;4917645;29;20217;-69
2021/03/30 19:07:44;;;;;;;5.33;2.50;;;16.20;95.50;;;;;;4918301;29;20708;-67
2021/03/30 19:10:12;;;;;;;4.43;2.63;;;16.00;95.90;;;;;;4918257;29;20252;-67
2021/03/30 19:12:38;;;;;;;6.00;3.07;;;16.00;96.00;;;;;;4917605;29;20237;-71
2021/03/30 19:15:06;;;;;;;6.20;3.03;;;15.90;96.40;;;;;;4934814;29;20205;-67
